Time;durP1;ratioP1;P1;durP2;ratioP2;P2;SDS_P1;SDS_P2;PMS_P1;PMS_P2;Temp;Humidity;BMP_temperature;BMP_pressure;BME280_temperature;BME280_humidity;BME280_pressure;Samples;Min_cycle;Max_cycle;Signal;HPM_P1;HPM_P2
2023/06/25 00:01:01;;;;;;;5.63;4.72;;;11.30;99.90;;;;;;5093756;28;20019;-81
2023/06/25 00:03:26;;;;;;;4.75;4.05;;;11.20;99.90;;;;;;5093672;28;20115;-81
2023/06/25 00:05:52;;;;;;;5.25;4.75;;;11.20;99.90;;;;;;5094769;28;20042;-81
2023/06/25 00:08:17;;;;;;;6.13;4.63;;;11.20;99.90;;;;;;5094755;28;20077;-80
2023/06/25 00:10:43;;;;;;;11.35;5.35;;;11.20;99.90;;;;;;5094904;28;20464;-80
2023/06/25 00:13:09;;;;;;;20.10;12.40;;;11.20;99.90;;;;;;5093420;28;20020;-81
2023/06/25 00:15:34;;;;;;;13.85;9.32;;;11.20;99.90;;;;;;5094696;28;20423;-81
2023/06/25 00:18:00;;;;;;;17.55;9.82;;;11.20;99.90;;;;;;5094770;28;20377;-81
2023/06/25 00:20:26;;;;;;;9.68;7.05;;;11.10;99.90;;;;;;5094611;28;20027;-80
2023/06/25 00:22:52;;;;;;;9.73;7.05;;;11.10;99.90;;;;;;5093216;28;20016;-81
2023/06/25 00:25:18;;;;;;;12.60;8.57;;;11.10;99.90;;;;;;5074223;28;20401;-81
2023/06/25 00:27:47;;;;;;;11.43;7.65;;;11.00;99.90;;;;;;5072913;28;20031;-80
2023/06/25 00:30:16;;;;;;;16.83;10.68;;;11.00;99.90;;;;;;5073805;28;20017;-81
2023/06/25 00:32:45;;;;;;;15.75;10.88;;;11.00;99.90;;;;;;5072756;28;20474;-80
2023/06/25 00:35:12;;;;;;;8.85;6.38;;;11.00;99.90;;;;;;5074058;28;20021;-81
2023/06/25 00:37:41;;;;;;;11.10;6.20;;;11.00;99.90;;;;;;5072648;28;20482;-80
2023/06/25 00:40:10;;;;;;;10.88;6.85;;;11.00;99.90;;;;;;5072726;28;20028;-80
2023/06/25 00:42:43;;;;;;;14.07;9.43;;;11.00;99.90;;;;;;5072824;28;20416;-80
2023/06/25 00:45:11;;;;;;;15.43;8.60;;;11.00;99.90;;;;;;5072613;28;20033;-81
2023/06/25 00:47:37;;;;;;;16.50;10.57;;;10.90;99.90;;;;;;5072373;28;20044;-80
2023/06/25 00:50:04;;;;;;;14.93;9.98;;;10.90;99.90;;;;;;5074359;28;20031;-81
2023/06/25 00:52:29;;;;;;;16.48;8.98;;;10.90;99.90;;;;;;5092645;28;20047;-81
2023/06/25 00:54:55;;;;;;;16.33;10.60;;;11.00;99.90;;;;;;5092855;28;20020;-81
2023/06/25 00:57:21;;;;;;;18.50;12.07;;;11.00;99.90;;;;;;5092597;28;20015;-81
2023/06/25 00:59:48;;;;;;;9.70;6.63;;;11.00;99.90;;;;;;5092746;28;20016;-80
2023/06/25 01:02:32;;;;;;;11.60;7.43;;;10.90;99.90;;;;;;5092585;28;20012;-81
2023/06/25 01:05:03;;;;;;;7.03;5.65;;;10.90;99.90;;;;;;5092617;28;20054;-80
2023/06/25 01:07:30;;;;;;;5.65;5.13;;;10.80;99.90;;;;;;5093940;28;20027;-80
2023/06/25 01:09:56;;;;;;;7.20;4.00;;;10.80;99.90;;;;;;5093845;28;20119;-80
2023/06/25 01:12:22;;;;;;;5.18;3.92;;;10.80;99.90;;;;;;5092362;28;20060;-81
2023/06/25 01:14:50;;;;;;;3.60;3.30;;;10.70;99.90;;;;;;5092490;28;20052;-80
2023/06/25 01:17:16;;;;;;;4.18;3.78;;;10.70;99.90;;;;;;5092313;28;20489;-80
2023/06/25 01:19:42;;;;;;;6.82;4.90;;;10.70;99.90;;;;;;5093662;28;20063;-81
2023/06/25 01:22:09;;;;;;;5.00;4.47;;;10.60;99.90;;;;;;5093641;28;20029;-80
2023/06/25 01:24:35;;;;;;;6.15;4.72;;;10.60;99.90;;;;;;5093719;28;20040;-80
2023/06/25 01:27:05;;;;;;;6.38;5.03;;;10.60;99.90;;;;;;5093669;28;20027;-81
2023/06/25 01:29:32;;;;;;;6.22;4.53;;;10.50;99.90;;;;;;5092433;28;20024;-80
2023/06/25 01:31:58;;;;;;;5.53;3.90;;;10.50;99.90;;;;;;5093468;28;20016;-81
2023/06/25 01:34:24;;;;;;;4.63;4.13;;;10.50;99.90;;;;;;5093464;28;20027;-81
2023/06/25 01:36:51;;;;;;;6.55;4.28;;;10.50;99.90;;;;;;5092252;28;20020;-81
2023/06/25 01:39:22;;;;;;;8.13;5.88;;;10.50;99.90;;;;;;5092380;28;20101;-80
2023/06/25 01:41:48;;;;;;;9.82;6.63;;;10.50;99.90;;;;;;5092260;28;20024;-81
2023/06/25 01:44:29;;;;;;;6.55;4.75;;;10.50;99.90;;;;;;5095574;28;20496;-80
2023/06/25 01:46:55;;;;;;;5.47;4.68;;;10.50;99.90;;;;;;5096299;28;20024;-80
2023/06/25 01:49:21;;;;;;;9.23;6.22;;;10.50;99.90;;;;;;5097488;28;20486;-80
2023/06/25 01:51:47;;;;;;;10.52;5.00;;;10.40;99.90;;;;;;5096352;28;20501;-81
2023/06/25 01:54:13;;;;;;;13.98;5.72;;;10.40;99.90;;;;;;5096275;28;20119;-81
2023/06/25 01:56:38;;;;;;;18.23;8.10;;;10.40;99.90;;;;;;5097336;28;20492;-81
2023/06/25 01:59:04;;;;;;;17.42;8.13;;;10.40;99.90;;;;;;5097351;28;20073;-80
2023/06/25 02:01:30;;;;;;;16.55;7.80;;;10.30;99.90;;;;;;5097386;28;20024;-80
2023/06/25 02:03:56;;;;;;;23.08;10.55;;;10.40;99.90;;;;;;5095961;28;20363;-81
2023/06/25 02:06:22;;;;;;;29.60;12.13;;;10.40;99.90;;;;;;5095887;28;20028;-81
2023/06/25 02:08:47;;;;;;;24.02;11.48;;;10.40;99.90;;;;;;5095971;28;20458;-80
2023/06/25 02:11:13;;;;;;;22.33;9.70;;;10.40;99.90;;;;;;5097052;28;20111;-80
2023/06/25 02:13:38;;;;;;;18.92;8.90;;;10.50;99.90;;;;;;5095762;28;20115;-80
2023/06/25 02:16:04;;;;;;;17.40;8.00;;;10.40;99.90;;;;;;5078460;28;20050;-80
2023/06/25 02:18:31;;;;;;;25.15;9.55;;;10.40;99.90;;;;;;5076550;28;20016;-80
2023/06/25 02:20:56;;;;;;;26.95;9.00;;;10.30;99.90;;;;;;5075387;28;20024;-80
2023/06/25 02:23:22;;;;;;;20.75;7.72;;;10.30;99.90;;;;;;5076550;28;20967;-81
2023/06/25 02:25:49;;;;;;;78.55;12.65;;;10.30;99.90;;;;;;5076536;28;20029;-80
2023/06/25 02:28:15;;;;;;;78.15;13.48;;;10.20;99.90;;;;;;5075305;28;20021;-80
2023/06/25 02:30:41;;;;;;;69.45;15.43;;;10.30;99.90;;;;;;5075180;28;20021;-81
2023/06/25 02:33:07;;;;;;;80.10;16.40;;;10.30;99.90;;;;;;5075271;28;20363;-80
2023/06/25 02:35:33;;;;;;;46.95;11.85;;;10.30;99.90;;;;;;5075135;28;20031;-80
2023/06/25 02:37:58;;;;;;;50.53;13.65;;;10.40;99.90;;;;;;5075188;28;20086;-81
2023/06/25 02:40:27;;;;;;;24.30;10.35;;;10.40;99.90;;;;;;5075163;28;20031;-80
2023/06/25 02:42:53;;;;;;;54.78;13.32;;;10.50;99.90;;;;;;5074911;28;20070;-80
2023/06/25 02:45:18;;;;;;;20.65;10.82;;;10.50;99.90;;;;;;5074942;28;20033;-80
2023/06/25 02:47:44;;;;;;;20.55;10.80;;;10.50;99.90;;;;;;5074708;28;20134;-80
2023/06/25 02:50:10;;;;;;;32.33;10.10;;;10.50;99.90;;;;;;5076174;28;20099;-81
2023/06/25 02:52:35;;;;;;;28.92;10.50;;;10.50;99.90;;;;;;5074909;28;20028;-80
2023/06/25 02:55:01;;;;;;;28.83;10.75;;;10.50;99.90;;;;;;5075931;28;20059;-80
2023/06/25 02:57:29;;;;;;;29.20;10.75;;;10.60;99.90;;;;;;5074705;28;20074;-81
2023/06/25 02:59:55;;;;;;;55.88;13.05;;;10.60;99.90;;;;;;5076023;28;20474;-80
2023/06/25 03:02:21;;;;;;;59.90;12.68;;;10.60;99.90;;;;;;5075808;28;20095;-80
2023/06/25 03:04:46;;;;;;;70.45;13.82;;;10.60;99.90;;;;;;5074639;28;20115;-81
2023/06/25 03:07:12;;;;;;;51.33;15.18;;;10.70;99.90;;;;;;5074582;28;20020;-80
2023/06/25 03:09:38;;;;;;;52.63;14.35;;;10.70;99.90;;;;;;5074688;28;20021;-81
2023/06/25 03:12:04;;;;;;;92.25;18.38;;;10.80;99.90;;;;;;5074369;28;20046;-80
2023/06/25 03:14:30;;;;;;;24.63;12.98;;;10.80;99.90;;;;;;5075860;28;20074;-80
2023/06/25 03:16:56;;;;;;;58.28;15.68;;;10.90;99.90;;;;;;5074298;28;20421;-80
2023/06/25 03:19:21;;;;;;;83.28;15.95;;;11.00;99.90;;;;;;5074613;28;20029;-81
2023/06/25 03:21:47;;;;;;;94.60;16.98;;;11.00;99.90;;;;;;5074267;28;20111;-81
2023/06/25 03:24:13;;;;;;;51.63;13.48;;;11.10;99.90;;;;;;5075498;28;20484;-80
2023/06/25 03:26:38;;;;;;;33.42;11.93;;;11.10;99.90;;;;;;5075441;28;20063;-80
2023/06/25 03:29:04;;;;;;;63.10;13.70;;;11.10;99.90;;;;;;5075552;28;20025;-80
2023/06/25 03:31:30;;;;;;;86.53;14.35;;;11.10;99.90;;;;;;5074181;28;20013;-81
2023/06/25 03:33:55;;;;;;;102.95;15.05;;;11.20;99.90;;;;;;5075375;28;20024;-81
2023/06/25 03:36:22;;;;;;;58.08;13.40;;;11.20;99.90;;;;;;5074021;28;20067;-81
2023/06/25 03:38:48;;;;;;;61.08;14.18;;;11.20;99.90;;;;;;5075354;28;20021;-81
2023/06/25 03:41:13;;;;;;;41.80;11.77;;;11.30;99.90;;;;;;5073706;28;20017;-80
2023/06/25 03:43:39;;;;;;;54.65;12.65;;;11.30;99.90;;;;;;5073888;28;20017;-81
2023/06/25 03:46:04;;;;;;;60.55;13.60;;;11.40;99.90;;;;;;5073898;28;20033;-80
2023/06/25 03:48:30;;;;;;;42.72;12.35;;;11.40;99.90;;;;;;5075046;28;20080;-80
2023/06/25 03:50:56;;;;;;;45.22;10.70;;;11.50;99.90;;;;;;5075081;28;20417;-81
2023/06/25 03:53:21;;;;;;;25.63;10.65;;;11.50;99.90;;;;;;5073487;28;20017;-82
2023/06/25 03:55:47;;;;;;;23.80;10.23;;;11.60;99.90;;;;;;5073441;28;20383;-81
2023/06/25 03:58:13;;;;;;;17.98;10.55;;;11.60;99.90;;;;;;5074900;28;20017;-80
2023/06/25 04:00:39;;;;;;;34.00;11.35;;;11.70;99.90;;;;;;5073511;28;20028;-80
2023/06/25 04:03:05;;;;;;;42.85;10.93;;;11.70;99.90;;;;;;5073419;28;20114;-81
2023/06/25 04:05:31;;;;;;;26.50;11.93;;;11.70;99.90;;;;;;5073912;28;20108;-81
2023/06/25 04:07:56;;;;;;;34.33;11.50;;;11.70;99.90;;;;;;5074513;28;20039;-81
2023/06/25 04:10:22;;;;;;;25.98;11.07;;;11.70;99.90;;;;;;5074648;28;20393;-80
2023/06/25 04:12:48;;;;;;;55.42;13.23;;;11.70;99.90;;;;;;5073516;28;20048;-81
2023/06/25 04:15:13;;;;;;;18.42;11.15;;;11.70;99.90;;;;;;5074520;28;20070;-81
2023/06/25 04:17:40;;;;;;;26.25;12.25;;;11.80;99.90;;;;;;5074318;28;20028;-80
2023/06/25 04:20:06;;;;;;;31.50;12.25;;;11.90;99.90;;;;;;5073126;28;20187;-81
2023/06/25 04:22:32;;;;;;;20.40;11.88;;;11.90;99.90;;;;;;5072897;28;20021;-82
2023/06/25 04:24:58;;;;;;;27.65;12.02;;;12.00;99.90;;;;;;5073202;28;20069;-81
2023/06/25 04:27:24;;;;;;;39.63;13.07;;;12.10;99.90;;;;;;5072928;28;20082;-81
2023/06/25 04:42:09;;;;;;;66.80;16.20;;;12.10;99.90;;;;;;5067303;27;20387;-79
2023/06/25 04:44:35;;;;;;;101.28;16.45;;;12.80;99.90;;;;;;5067361;28;20062;-79
2023/06/25 04:47:01;;;;;;;47.22;13.10;;;12.90;99.90;;;;;;5067395;28;20048;-79
2023/06/25 04:49:26;;;;;;;64.20;14.60;;;13.00;99.90;;;;;;5065976;28;20477;-81
2023/06/25 04:51:52;;;;;;;47.88;14.75;;;13.10;99.90;;;;;;5065924;28;20033;-81
2023/06/25 04:54:17;;;;;;;63.47;14.98;;;13.20;99.90;;;;;;5066049;28;20025;-81
2023/06/25 04:56:43;;;;;;;34.67;14.45;;;13.20;99.90;;;;;;5065830;28;20541;-81
2023/06/25 04:59:08;;;;;;;54.03;15.80;;;13.30;99.90;;;;;;5067160;28;20388;-80
2023/06/25 05:01:34;;;;;;;30.45;15.57;;;13.40;99.90;;;;;;5065994;28;20109;-81
2023/06/25 05:04:00;;;;;;;41.50;18.88;;;13.50;99.90;;;;;;5065695;28;20021;-81
2023/06/25 05:06:26;;;;;;;36.75;19.63;;;13.50;99.90;;;;;;5066954;28;20949;-81
2023/06/25 05:08:51;;;;;;;37.53;18.92;;;13.70;99.90;;;;;;5065638;28;20113;-81
2023/06/25 05:11:17;;;;;;;42.45;20.20;;;13.80;99.90;;;;;;5065732;28;20378;-81
2023/06/25 05:13:42;;;;;;;36.97;20.35;;;13.80;99.90;;;;;;5066926;28;20021;-81
2023/06/25 05:16:08;;;;;;;32.55;21.25;;;13.90;99.90;;;;;;5065540;28;20024;-81
2023/06/25 05:18:33;;;;;;;36.17;20.83;;;14.00;99.90;;;;;;5067076;28;20104;-81
2023/06/25 05:20:59;;;;;;;34.90;22.05;;;14.00;99.90;;;;;;5066711;28;20095;-81
2023/06/25 05:23:25;;;;;;;34.17;20.08;;;14.20;99.90;;;;;;5066867;28;20025;-81
2023/06/25 05:25:51;;;;;;;41.55;23.35;;;14.20;99.90;;;;;;5065520;28;20485;-81
2023/06/25 05:28:17;;;;;;;34.30;22.20;;;14.30;99.90;;;;;;5065468;28;20024;-81
2023/06/25 05:30:42;;;;;;;38.88;22.60;;;14.40;99.90;;;;;;5065167;28;20035;-81
2023/06/25 05:33:08;;;;;;;36.17;22.75;;;14.40;99.90;;;;;;5065329;28;20136;-81
2023/06/25 05:35:34;;;;;;;31.52;20.58;;;14.50;99.90;;;;;;5066823;28;20050;-81
2023/06/25 05:37:59;;;;;;;37.35;22.08;;;14.70;99.90;;;;;;5066488;28;20029;-81
2023/06/25 05:40:26;;;;;;;37.38;22.10;;;14.70;99.90;;;;;;5066394;28;20052;-81
2023/06/25 05:42:54;;;;;;;39.78;24.50;;;14.70;99.90;;;;;;5054464;28;20055;-81
2023/06/25 05:45:19;;;;;;;36.70;22.33;;;14.80;99.90;;;;;;5068705;28;20115;-81
2023/06/25 05:47:45;;;;;;;30.80;21.05;;;14.80;99.90;;;;;;5051652;28;20453;-81
2023/06/25 05:50:10;;;;;;;38.60;23.58;;;15.00;99.90;;;;;;5052818;28;20056;-81
2023/06/25 05:52:36;;;;;;;32.35;22.83;;;15.10;99.90;;;;;;5052870;28;20466;-81
2023/06/25 05:55:02;;;;;;;34.63;22.17;;;15.20;99.90;;;;;;5051454;28;20115;-81
2023/06/25 05:57:27;;;;;;;36.40;22.10;;;15.20;99.90;;;;;;5051773;28;20504;-81
2023/06/25 05:59:53;;;;;;;33.67;22.60;;;15.40;99.90;;;;;;5051532;28;20426;-81
2023/06/25 06:02:18;;;;;;;32.80;22.38;;;15.50;99.90;;;;;;5052841;28;20359;-81
2023/06/25 06:04:44;;;;;;;33.65;22.77;;;15.70;99.90;;;;;;5052622;28;20125;-81
2023/06/25 06:07:10;;;;;;;35.05;23.15;;;15.70;99.90;;;;;;5052862;28;20029;-81
2023/06/25 06:09:35;;;;;;;33.42;21.70;;;15.90;99.90;;;;;;5051334;28;20028;-81
2023/06/25 06:12:01;;;;;;;37.22;24.95;;;16.10;99.90;;;;;;5052412;28;20032;-81
2023/06/25 06:14:27;;;;;;;26.30;18.27;;;16.10;99.90;;;;;;5051230;28;20021;-81
2023/06/25 06:16:52;;;;;;;30.48;21.13;;;16.30;99.90;;;;;;5051187;28;20478;-81
2023/06/25 06:19:18;;;;;;;30.90;21.80;;;16.50;99.90;;;;;;5051208;28;20070;-81
2023/06/25 06:21:43;;;;;;;35.08;22.33;;;16.60;99.90;;;;;;5052831;28;20051;-81
2023/06/25 06:24:09;;;;;;;26.63;19.67;;;16.90;99.90;;;;;;5051145;28;20056;-81
2023/06/25 06:26:35;;;;;;;33.60;23.13;;;16.90;99.90;;;;;;5051034;28;20017;-81
2023/06/25 06:29:03;;;;;;;28.63;19.95;;;17.00;99.90;;;;;;5050983;28;20040;-81
2023/06/25 06:31:31;;;;;;;25.10;18.27;;;17.20;99.90;;;;;;5051050;28;20029;-81
2023/06/25 06:33:57;;;;;;;28.52;18.85;;;17.40;99.90;;;;;;5052343;28;20025;-81
2023/06/25 06:36:23;;;;;;;26.08;19.77;;;17.50;99.90;;;;;;5050864;28;20484;-82
2023/06/25 06:38:48;;;;;;;23.98;18.23;;;17.70;99.90;;;;;;5052215;28;20106;-82
2023/06/25 06:41:14;;;;;;;24.08;17.70;;;17.90;99.90;;;;;;5050880;28;20053;-81
2023/06/25 06:43:40;;;;;;;24.20;17.88;;;18.00;99.90;;;;;;5051326;28;20029;-81
2023/06/25 06:46:05;;;;;;;24.40;18.65;;;18.20;99.90;;;;;;5052040;28;20025;-81
2023/06/25 06:48:31;;;;;;;26.00;18.02;;;18.30;99.90;;;;;;5050704;28;20029;-81
2023/06/25 06:50:56;;;;;;;22.75;16.27;;;18.60;99.90;;;;;;5051815;28;20044;-82
2023/06/25 06:53:22;;;;;;;23.83;16.45;;;18.80;99.90;;;;;;5050908;28;20090;-81
2023/06/25 06:55:47;;;;;;;19.63;14.77;;;18.90;99.90;;;;;;5052691;28;20095;-81
2023/06/25 06:58:13;;;;;;;18.30;14.13;;;19.10;99.90;;;;;;5051861;28;20029;-81
2023/06/25 07:00:38;;;;;;;21.08;14.85;;;19.20;99.90;;;;;;5051821;28;20018;-81
2023/06/25 07:03:04;;;;;;;19.40;14.40;;;19.50;99.90;;;;;;5051693;28;20479;-81
2023/06/25 07:05:30;;;;;;;16.05;13.57;;;19.70;99.90;;;;;;5050411;28;20025;-81
2023/06/25 07:07:55;;;;;;;16.88;12.90;;;19.90;99.90;;;;;;5052142;28;20069;-81
2023/06/25 07:10:21;;;;;;;16.63;13.13;;;20.30;99.90;;;;;;5050304;28;20031;-82
2023/06/25 07:12:46;;;;;;;15.48;11.93;;;20.40;99.90;;;;;;5051716;28;20021;-81
2023/06/25 07:15:12;;;;;;;17.55;11.98;;;20.70;99.90;;;;;;5051535;28;20099;-81
2023/06/25 07:17:38;;;;;;;14.65;11.95;;;20.90;99.90;;;;;;5052359;28;20100;-81
2023/06/25 07:20:04;;;;;;;15.63;12.00;;;21.10;99.90;;;;;;5050730;28;20024;-81
2023/06/25 07:22:29;;;;;;;13.43;11.02;;;21.20;99.90;;;;;;5051485;28;20029;-81
2023/06/25 07:24:55;;;;;;;17.40;11.43;;;21.40;99.90;;;;;;5050183;28;20073;-81
2023/06/25 07:27:20;;;;;;;10.52;8.90;;;21.50;96.00;;;;;;5051288;28;20028;-81
2023/06/25 07:29:46;;;;;;;12.57;8.32;;;21.50;83.00;;;;;;5051256;28;20036;-81
2023/06/25 07:32:12;;;;;;;10.82;7.85;;;21.40;78.80;;;;;;5051670;28;20096;-81
2023/06/25 07:34:37;;;;;;;12.68;7.72;;;21.50;73.70;;;;;;5050018;28;20037;-81
2023/06/25 07:37:03;;;;;;;10.43;7.55;;;21.60;74.50;;;;;;5050023;28;20029;-81
2023/06/25 07:39:30;;;;;;;12.80;9.23;;;21.70;74.00;;;;;;5050072;28;20025;-81
2023/06/25 07:41:56;;;;;;;11.48;8.35;;;21.80;71.40;;;;;;5050118;28;20078;-81
2023/06/25 07:44:22;;;;;;;11.18;8.07;;;22.00;73.20;;;;;;5049878;28;20499;-81
2023/06/25 07:46:48;;;;;;;10.90;7.38;;;22.10;70.40;;;;;;5049874;28;20112;-81
2023/06/25 07:49:14;;;;;;;11.80;7.88;;;21.90;69.00;;;;;;5050208;28;20029;-81
2023/06/25 07:51:40;;;;;;;8.52;7.15;;;22.10;69.40;;;;;;5049752;28;20405;-81
2023/06/25 07:54:06;;;;;;;12.20;7.80;;;22.20;69.60;;;;;;5051272;28;20032;-81
2023/06/25 07:56:31;;;;;;;10.68;7.88;;;22.30;68.00;;;;;;5049794;28;20029;-81
2023/06/25 07:58:57;;;;;;;10.15;7.15;;;22.40;69.30;;;;;;5051122;28;20025;-81
2023/06/25 08:01:22;;;;;;;7.47;6.60;;;22.30;66.30;;;;;;5050821;28;20439;-81
2023/06/25 08:03:48;;;;;;;9.68;6.00;;;22.10;67.00;;;;;;5049592;28;20021;-81
2023/06/25 08:06:14;;;;;;;9.07;6.22;;;22.00;64.60;;;;;;5049531;28;20021;-81
2023/06/25 08:08:39;;;;;;;10.25;7.55;;;22.20;64.70;;;;;;5049593;28;20025;-80
2023/06/25 08:11:05;;;;;;;10.40;6.97;;;22.20;66.90;;;;;;5049546;28;20052;-81
2023/06/25 08:13:30;;;;;;;8.73;7.32;;;22.20;66.20;;;;;;5050871;28;20021;-81
2023/06/25 08:15:56;;;;;;;8.82;6.78;;;22.30;67.20;;;;;;5050639;28;20025;-81
2023/06/25 08:18:22;;;;;;;8.02;7.10;;;22.30;66.10;;;;;;5049412;28;20070;-81
2023/06/25 08:20:47;;;;;;;11.50;7.40;;;22.50;66.10;;;;;;5050920;28;20084;-81
2023/06/25 08:23:13;;;;;;;9.27;7.15;;;22.50;65.40;;;;;;5049194;28;20027;-81
2023/06/25 08:25:39;;;;;;;8.15;6.38;;;22.30;66.90;;;;;;5049369;28;20053;-80
2023/06/25 08:28:04;;;;;;;8.02;6.38;;;22.10;66.90;;;;;;5050584;28;20025;-81
2023/06/25 08:30:30;;;;;;;14.00;7.15;;;22.10;67.90;;;;;;5049249;28;20115;-82
2023/06/25 08:32:55;;;;;;;9.43;7.15;;;22.10;66.10;;;;;;5049433;28;20029;-81
2023/06/25 08:35:21;;;;;;;10.30;7.00;;;22.20;66.60;;;;;;5049216;28;20032;-81
2023/06/25 08:37:47;;;;;;;11.35;6.75;;;22.10;66.80;;;;;;5050339;28;20017;-81
2023/06/25 08:40:13;;;;;;;7.47;6.45;;;22.20;65.50;;;;;;5048777;28;20409;-82
2023/06/25 08:42:41;;;;;;;10.77;6.18;;;22.20;67.70;;;;;;5050481;28;20486;-81
2023/06/25 08:45:08;;;;;;;12.95;6.97;;;22.40;68.30;;;;;;5050631;28;20381;-81
2023/06/25 08:47:39;;;;;;;11.18;6.63;;;22.10;66.50;;;;;;5050426;28;20033;-81
2023/06/25 08:50:06;;;;;;;9.80;6.85;;;22.20;67.10;;;;;;5050222;28;20411;-81
2023/06/25 08:52:33;;;;;;;10.73;7.00;;;22.30;67.10;;;;;;5048938;28;20021;-81
2023/06/25 08:54:59;;;;;;;9.15;7.22;;;22.70;67.00;;;;;;5049346;28;20053;-81
2023/06/25 08:57:24;;;;;;;8.77;6.82;;;23.00;68.00;;;;;;5050194;28;20059;-82
2023/06/25 08:59:50;;;;;;;10.57;7.55;;;23.00;66.60;;;;;;5048807;28;20119;-81
2023/06/25 09:02:16;;;;;;;9.98;7.60;;;22.80;65.50;;;;;;5050157;28;20033;-81
2023/06/25 09:04:43;;;;;;;9.85;6.95;;;22.80;66.10;;;;;;5050155;28;20028;-81
2023/06/25 09:07:19;;;;;;;9.35;6.70;;;22.70;65.30;;;;;;5050601;28;20028;-82
2023/06/25 09:09:51;;;;;;;11.13;7.40;;;22.70;64.00;;;;;;5050192;28;20358;-81
2023/06/25 09:12:23;;;;;;;7.47;6.53;;;22.80;64.10;;;;;;5048882;28;20393;-82
2023/06/25 09:14:49;;;;;;;7.68;6.90;;;22.80;63.40;;;;;;5048704;28;20052;-81
2023/06/25 09:17:22;;;;;;;9.52;7.10;;;22.70;63.80;;;;;;5051558;28;20508;-81
2023/06/25 09:19:48;;;;;;;10.20;7.15;;;22.60;64.50;;;;;;5052283;28;20089;-81
2023/06/25 09:22:14;;;;;;;8.48;7.30;;;22.30;64.70;;;;;;5053364;28;20018;-82
2023/06/25 09:24:44;;;;;;;11.05;7.45;;;22.20;64.50;;;;;;5051951;28;20074;-82
2023/06/25 09:27:10;;;;;;;8.38;6.75;;;22.40;65.20;;;;;;5053313;28;20033;-81
2023/06/25 09:29:37;;;;;;;7.85;6.72;;;22.70;63.20;;;;;;5053419;28;20025;-81
2023/06/25 09:32:10;;;;;;;9.05;7.43;;;23.00;62.90;;;;;;5051957;28;20040;-81
2023/06/25 09:34:46;;;;;;;7.20;6.50;;;23.20;61.20;;;;;;5053230;28;20119;-82
2023/06/25 09:37:12;;;;;;;7.38;6.22;;;23.20;61.90;;;;;;5051900;28;20470;-82
2023/06/25 09:39:38;;;;;;;9.73;6.68;;;23.00;61.50;;;;;;5053020;28;20021;-81
2023/06/25 09:42:05;;;;;;;7.13;6.43;;;22.70;63.30;;;;;;5051744;28;20178;-81
2023/06/25 09:44:33;;;;;;;11.30;6.72;;;22.50;63.40;;;;;;5052981;28;20489;-81
2023/06/25 09:47:06;;;;;;;9.30;6.35;;;22.50;64.00;;;;;;5053049;28;20028;-81
2023/06/25 09:49:32;;;;;;;9.48;6.90;;;22.40;63.80;;;;;;5051712;28;20013;-81
2023/06/25 09:52:14;;;;;;;9.13;6.57;;;22.40;61.70;;;;;;5051583;28;20025;-81
2023/06/25 09:54:41;;;;;;;7.75;6.40;;;22.80;62.20;;;;;;5051771;28;20029;-82
2023/06/25 09:57:09;;;;;;;7.38;6.50;;;23.20;61.00;;;;;;5052846;28;20558;-81
2023/06/25 09:59:36;;;;;;;12.15;7.03;;;23.40;58.40;;;;;;5051442;28;20017;-81
2023/06/25 10:02:04;;;;;;;9.00;7.15;;;23.70;58.50;;;;;;5051789;28;20029;-81
2023/06/25 10:04:32;;;;;;;9.68;6.78;;;24.10;57.60;;;;;;5051415;28;20021;-82
2023/06/25 10:06:58;;;;;;;7.82;6.93;;;24.20;57.90;;;;;;5052705;28;20532;-82
2023/06/25 10:09:24;;;;;;;9.68;6.22;;;23.60;57.80;;;;;;5052979;28;20049;-82
2023/06/25 10:11:55;;;;;;;7.35;6.10;;;23.40;58.50;;;;;;5051456;28;20017;-81
2023/06/25 10:14:21;;;;;;;7.18;6.07;;;23.10;58.80;;;;;;5052679;28;20060;-81
2023/06/25 10:16:57;;;;;;;8.68;6.75;;;23.10;60.40;;;;;;5051307;28;20482;-82
2023/06/25 10:19:24;;;;;;;8.35;5.95;;;22.90;62.20;;;;;;5052407;28;20426;-82
2023/06/25 10:22:08;;;;;;;8.68;6.07;;;22.80;61.60;;;;;;5052363;28;20100;-81
2023/06/25 10:24:38;;;;;;;9.07;6.63;;;22.80;60.40;;;;;;5051478;28;20025;-81
2023/06/25 10:27:04;;;;;;;6.32;5.53;;;22.80;60.10;;;;;;5050934;28;20112;-81
2023/06/25 10:29:41;;;;;;;7.28;5.65;;;23.10;59.50;;;;;;5051040;28;20477;-82
2023/06/25 10:32:06;;;;;;;6.43;5.80;;;23.50;58.80;;;;;;5038786;28;20460;-81
2023/06/25 10:34:37;;;;;;;8.27;6.20;;;23.80;56.40;;;;;;5031192;28;20045;-81
2023/06/25 10:37:04;;;;;;;6.63;5.70;;;24.00;54.70;;;;;;5031189;28;20018;-81
2023/06/25 10:39:41;;;;;;;7.97;5.22;;;23.90;54.40;;;;;;5030973;28;20017;-81
2023/06/25 10:42:08;;;;;;;7.80;5.60;;;23.90;54.50;;;;;;5032117;28;20050;-83
2023/06/25 10:44:34;;;;;;;6.32;5.70;;;23.90;55.30;;;;;;5031271;28;20026;-81
2023/06/25 10:47:09;;;;;;;7.82;6.03;;;23.80;54.70;;;;;;5032261;28;20037;-81
2023/06/25 10:49:36;;;;;;;6.82;5.78;;;23.90;56.00;;;;;;5030773;28;20033;-81
2023/06/25 10:52:03;;;;;;;6.10;5.38;;;24.10;56.60;;;;;;5030714;28;20021;-81
2023/06/25 10:54:30;;;;;;;8.95;5.90;;;24.40;56.10;;;;;;5030869;28;20112;-81
2023/06/25 10:57:06;;;;;;;7.95;5.68;;;24.80;55.60;;;;;;5030966;28;20054;-82
2023/06/25 10:59:32;;;;;;;8.77;5.82;;;24.80;55.40;;;;;;5032012;28;20024;-82
2023/06/25 11:02:18;;;;;;;7.18;5.80;;;24.60;53.40;;;;;;5031945;28;20389;-82
2023/06/25 11:04:56;;;;;;;8.43;6.32;;;24.40;53.10;;;;;;5031865;28;20025;-82
2023/06/25 11:07:23;;;;;;;7.03;5.60;;;24.10;54.60;;;;;;5031993;28;20493;-82
2023/06/25 11:09:55;;;;;;;8.85;5.85;;;24.00;52.90;;;;;;5031816;28;20025;-81
2023/06/25 11:12:20;;;;;;;7.97;6.63;;;24.00;54.20;;;;;;5030776;28;20497;-81
2023/06/25 11:14:46;;;;;;;6.72;5.32;;;24.30;53.70;;;;;;5031739;28;20022;-82
2023/06/25 11:17:18;;;;;;;9.13;5.68;;;24.70;54.50;;;;;;5030559;28;20049;-81
2023/06/25 11:19:50;;;;;;;12.68;6.53;;;24.40;54.80;;;;;;5031539;28;20022;-82
2023/06/25 11:22:15;;;;;;;7.50;5.90;;;24.30;55.70;;;;;;5030513;28;20480;-82
2023/06/25 11:24:41;;;;;;;7.00;6.30;;;24.30;56.00;;;;;;5031980;28;20024;-83
2023/06/25 11:27:07;;;;;;;7.10;6.10;;;24.20;56.40;;;;;;5031637;28;20602;-80
2023/06/25 11:29:37;;;;;;;7.45;5.88;;;24.10;56.10;;;;;;5031557;28;20029;-83
2023/06/25 11:32:07;;;;;;;7.15;6.00;;;24.30;55.50;;;;;;5031439;28;20030;-83
2023/06/25 11:34:33;;;;;;;7.13;6.18;;;24.50;55.50;;;;;;5031451;28;20105;-84
2023/06/25 11:37:12;;;;;;;6.93;5.97;;;24.60;54.10;;;;;;5031706;28;20491;-83
2023/06/25 11:39:46;;;;;;;7.72;5.88;;;24.90;53.60;;;;;;5030722;28;20386;-82
2023/06/25 11:42:13;;;;;;;6.65;5.95;;;25.00;52.70;;;;;;5031469;28;20033;-82
2023/06/25 11:44:39;;;;;;;9.05;5.68;;;25.10;51.50;;;;;;5029978;28;20112;-83
2023/06/25 11:47:04;;;;;;;6.53;5.13;;;25.10;50.30;;;;;;5030307;28;20048;-83
2023/06/25 11:49:30;;;;;;;6.22;4.97;;;25.10;49.50;;;;;;5030035;28;20037;-83
2023/06/25 11:51:58;;;;;;;8.95;5.65;;;25.20;49.80;;;;;;5030195;28;20028;-83
2023/06/25 11:54:24;;;;;;;7.20;6.00;;;25.20;51.40;;;;;;5030017;28;20158;-83
2023/06/25 11:56:49;;;;;;;6.28;5.70;;;25.30;51.50;;;;;;5029889;28;20077;-82
2023/06/25 11:59:15;;;;;;;8.25;5.80;;;24.80;52.30;;;;;;5029700;28;20498;-82
2023/06/25 12:01:41;;;;;;;9.15;6.07;;;24.50;51.80;;;;;;5030929;28;20033;-83
2023/06/25 12:04:06;;;;;;;9.23;5.93;;;24.60;52.20;;;;;;5031419;28;20377;-83
2023/06/25 12:06:32;;;;;;;8.70;6.00;;;24.60;51.80;;;;;;5031048;28;20474;-83
2023/06/25 12:08:58;;;;;;;6.22;5.43;;;24.20;51.20;;;;;;5029795;28;20026;-82
2023/06/25 12:11:23;;;;;;;6.28;5.45;;;24.10;53.20;;;;;;5029567;28;20022;-83
2023/06/25 12:13:49;;;;;;;8.40;5.47;;;24.00;52.60;;;;;;5030346;28;20050;-82
2023/06/25 12:16:14;;;;;;;7.28;5.72;;;23.90;52.70;;;;;;5029526;28;20064;-81
2023/06/25 12:18:40;;;;;;;8.05;6.10;;;23.90;53.20;;;;;;5030882;28;20033;-83
2023/06/25 12:21:06;;;;;;;6.88;6.15;;;23.90;54.30;;;;;;5030736;28;20112;-81
2023/06/25 12:23:31;;;;;;;6.45;5.75;;;23.90;53.70;;;;;;5030788;28;20018;-82
2023/06/25 12:25:57;;;;;;;8.02;5.72;;;23.70;54.20;;;;;;5030640;28;20030;-81
2023/06/25 12:28:22;;;;;;;7.25;5.88;;;23.70;55.00;;;;;;5030647;28;20061;-81
2023/06/25 12:30:48;;;;;;;7.25;5.38;;;24.00;54.00;;;;;;5029257;28;20033;-82
2023/06/25 12:33:13;;;;;;;10.18;5.90;;;24.30;52.60;;;;;;5030622;28;20025;-83
2023/06/25 12:35:39;;;;;;;14.48;5.72;;;24.50;51.30;;;;;;5029278;28;20018;-81
2023/06/25 12:38:04;;;;;;;5.90;5.13;;;24.80;51.50;;;;;;5030554;28;20022;-83
2023/06/25 12:40:30;;;;;;;8.77;6.20;;;24.90;51.90;;;;;;5029506;28;20515;-82
2023/06/25 12:42:56;;;;;;;5.97;5.30;;;24.70;51.30;;;;;;5030549;28;20029;-82
2023/06/25 12:45:23;;;;;;;8.40;5.70;;;24.70;51.70;;;;;;5029207;28;20477;-83